Flight Track Log - Related Links

Times and Time Zones

All times are in EDT time to prevent confusion due to time zone crossing. See the JBU348 flight status page for this flight to view local times or setup timezone preferences in your user account.

Time Position Orientation Groundspeed Altitude Reporting Facility
EDT Latitude Longitude Course Direction KTS MPH feet Rate Location/Type
Tue 06:16:06 PM 27.4000 -82.5667 North 191 220 600  Level Tampa TRACON
Tue 06:17:06 PM 27.4000 -82.6167 270° West 209 241 1,900 1,947 Climbing Tampa TRACON
Tue 06:18:00 PM 27.4000 -82.6833 270° West 260 299 4,300 2,974 Climbing Tampa TRACON
Tue 06:19:00 PM 27.6840 -82.7833 North  Level FlightAware
Tue 06:19:01 PM 27.4500 -82.7667 304° West 278 320 7,600  Level Tampa TRACON
Tue 06:20:00 PM 27.7986 -82.7833 360° North  Level FlightAware
Tue 06:20:51 PM 27.5878 -82.7908 351° North 336 387 12,000  Level Miami Center
Tue 06:21:00 PM 27.9131 -82.7833 North  Level FlightAware
Tue 06:21:51 PM 27.6817 -82.7911 360° North 329 379 14,900  Level Miami Center
Tue 06:24:04 PM 27.8911 -82.7892 360° North 343 395 19,800 2,083 Climbing Jacksonville Center
Tue 06:25:04 PM 27.9956 -82.7892 360° North 356 410 21,600 1,850 Climbing Jacksonville Center
Tue 06:26:04 PM 28.1039 -82.7892 360° North 375 432 23,500 1,850 Climbing Jacksonville Center
Tue 06:27:04 PM 28.2167 -82.7867 North 388 447 25,300 1,250 Climbing Jacksonville Center
Tue 06:28:04 PM 28.3314 -82.7842 North 394 453 26,000 550 Climbing Jacksonville Center
Tue 06:29:04 PM 28.4461 -82.7839 360° North 399 459 26,400 500 Climbing Jacksonville Center
Tue 06:30:04 PM 28.5608 -82.7719 North 406 467 27,000 300 Climbing Jacksonville Center
Tue 06:31:04 PM 28.6778 -82.7625 North 411 473 27,000  Level Jacksonville Center
Tue 06:32:04 PM 28.7883 -82.7528 North 406 467 27,000 800 Level Jacksonville Center
Tue 06:33:04 PM 28.9075 -82.7383 North 406 467 28,600 1,300 Climbing Jacksonville Center
Tue 06:34:04 PM 29.0264 -82.7286 North 412 474 29,600 1,200 Climbing Jacksonville Center
Tue 06:35:04 PM 29.1475 -82.7167 North 424 488 31,000 1,400 Climbing Jacksonville Center
Tue 06:36:04 PM 29.2683 -82.7044 North 430 495 32,400 1,200 Climbing Jacksonville Center
Tue 06:37:04 PM 29.3894 -82.6947 North 430 495 33,400 800 Climbing Jacksonville Center
Tue 06:38:04 PM 29.5253 -82.6969 359° North 430 495 34,000 300 Climbing Jacksonville Center
Tue 06:39:04 PM 29.6442 -82.6942 North 430 495 34,000  Level Jacksonville Center
Tue 06:40:04 PM 29.7633 -82.6939 360° North 430 495 34,000  Level Jacksonville Center
Tue 06:41:04 PM 29.8822 -82.6939 360° North 424 488 34,000  Level Jacksonville Center
Tue 06:42:04 PM 29.9992 -82.6911 North 419 482 34,000 150 Level Jacksonville Center
Tue 06:43:04 PM 30.1222 -82.6861 North 425 489 34,300 500 Climbing Jacksonville Center
Tue 06:44:04 PM 30.2433 -82.6858 360° North 425 489 35,000 550 Climbing Jacksonville Center
Tue 06:45:04 PM 30.3625 -82.6856 360° North 425 489 35,400 750 Climbing Jacksonville Center
Tue 06:46:04 PM 30.4836 -82.6828 North 425 489 36,500 800 Climbing Jacksonville Center
Tue 06:47:04 PM 30.5900 -82.6511 14° North 425 489 37,000 250 Climbing Jacksonville Center
Tue 06:48:04 PM 30.7006 -82.5953 23° Northeast 420 483 37,000  Level Jacksonville Center
Tue 06:49:04 PM 30.8194 -82.5369 23° Northeast 432 497 37,000  Level Jacksonville Center
Tue 06:50:04 PM 30.9319 -82.4808 23° Northeast 437 503 37,000  Level Jacksonville Center
Tue 06:51:04 PM 31.0444 -82.4247 23° Northeast 442 509 37,000  Level Jacksonville Center
Tue 06:52:04 PM 31.1611 -82.3706 22° Northeast 442 509 37,000  Level Jacksonville Center
Tue 06:53:04 PM 31.2778 -82.3142 22° Northeast 442 509 37,000  Level Jacksonville Center
Tue 06:54:04 PM 31.3944 -82.2550 23° Northeast 442 509 37,000  Level Jacksonville Center
Tue 06:55:04 PM 31.5092 -82.2031 21° North 442 509 37,000  Level Jacksonville Center
Tue 06:56:04 PM 31.6319 -82.1361 25° Northeast 442 509 37,000  Level Jacksonville Center
Tue 06:57:04 PM 31.7400 -82.0839 22° Northeast 436 502 37,000  Level Jacksonville Center
Tue 06:58:04 PM 31.8650 -82.0217 23° Northeast 445 512 37,000  Level Jacksonville Center
Tue 06:59:04 PM 31.9814 -81.9594 24° Northeast 445 512 37,000  Level Jacksonville Center
Tue 07:00:04 PM 32.0725 -81.8703 40° Northeast 460 529 37,000  Level Jacksonville Center
Tue 07:01:04 PM 32.1844 -81.7633 39° Northeast 476 548 37,000  Level Jacksonville Center
Tue 07:02:04 PM 32.2836 -81.6614 41° Northeast 471 542 37,000  Level Jacksonville Center
Tue 07:03:04 PM 32.3747 -81.5717 40° Northeast 478 550 37,000  Level Jacksonville Center
Tue 07:04:04 PM 32.4842 -81.4642 40° Northeast 472 543 37,000  Level Jacksonville Center
Tue 07:05:04 PM 32.5831 -81.3639 41° Northeast 472 543 37,000  Level Jacksonville Center
Tue 07:06:04 PM 32.6697 -81.2761 40° Northeast 462 532 37,000  Level Jacksonville Center
Tue 07:07:04 PM 32.7789 -81.1631 41° Northeast 462 532 37,000  Level Jacksonville Center
Tue 07:08:04 PM 32.8778 -81.0647 40° Northeast 462 532 37,000  Level Jacksonville Center
Tue 07:09:04 PM 32.9703 -80.9661 42° Northeast 452 520 37,000  Level Jacksonville Center
Tue 07:10:04 PM 33.0647 -80.8750 39° Northeast 452 520 37,000  Level Jacksonville Center
Tue 07:11:04 PM 33.1592 -80.7761 41° Northeast 452 520 37,000  Level Jacksonville Center
Tue 07:12:04 PM 33.2556 -80.6794 40° Northeast 452 520 37,000  Level Jacksonville Center
Tue 07:13:04 PM 33.3500 -80.5825 41° Northeast 452 520 37,000  Level Jacksonville Center
Tue 07:14:04 PM 33.4442 -80.4856 41° Northeast 452 520 37,000  Level Jacksonville Center
Tue 07:15:04 PM 33.5125 -80.3542 58° Northeast 452 520 37,000  Level Jacksonville Center
Tue 07:16:04 PM 33.5597 -80.2231 67° East 467 537 37,000  Level Jacksonville Center
Tue 07:17:04 PM 33.6108 -80.0744 68° East 462 532 37,000  Level Jacksonville Center
Tue 07:18:04 PM 33.6597 -79.9281 68° East 469 540 37,000  Level Jacksonville Center
Tue 07:19:04 PM 33.7106 -79.7817 67° East 474 545 37,000  Level Jacksonville Center
Tue 07:20:04 PM 33.7608 -79.6350 68° East 474 545 37,000 300 Level Jacksonville Center
Tue 07:21:04 PM 33.8114 -79.4883 67° East 474 545 37,600 650 Climbing Jacksonville Center
Tue 07:22:04 PM 33.8614 -79.3336 69° East 459 528 38,300 600 Climbing Jacksonville Center
Tue 07:23:04 PM 33.9133 -79.1864 67° East 459 528 38,800 350 Climbing Jacksonville Center
Tue 07:24:04 PM 33.9631 -79.0367 68° East 459 528 39,000 59 Climbing Jacksonville Center
Tue 07:26:27 PM 34.1603 -78.7942 45° Northeast 450 518 39,000  Level Washington Center
Tue 07:27:27 PM 34.2586 -78.7000 38° Northeast 444 511 39,000  Level Washington Center
Tue 07:28:25 PM 34.3531 -78.6056 40° Northeast 439 505 39,000  Level Washington Center
Tue 07:29:25 PM 34.4492 -78.5108 39° Northeast 439 505 39,000  Level Washington Center
Tue 07:30:25 PM 34.5414 -78.4083 42° Northeast 439 505 39,000  Level Washington Center
Tue 07:31:26 PM 34.6417 -78.3158 37° Northeast 439 505 39,000  Level Washington Center
Tue 07:32:25 PM 34.7356 -78.2206 40° Northeast 439 505 39,000  Level Washington Center
Tue 07:33:25 PM 34.8275 -78.1144 43° Northeast 439 505 39,000  Level Washington Center
Tue 07:34:26 PM 34.9256 -78.0189 39° Northeast 439 505 39,000  Level Washington Center
Tue 07:35:27 PM 35.0172 -77.9228 41° Northeast 439 505 39,000  Level Washington Center
Tue 07:36:25 PM 35.1169 -77.8317 37° Northeast 439 505 39,000  Level Washington Center
Tue 07:37:26 PM 35.2206 -77.7531 32° Northeast 439 505 39,000  Level Washington Center
Tue 07:38:26 PM 35.3242 -77.6744 32° Northeast 439 505 39,000  Level Washington Center
Tue 07:39:27 PM 35.4278 -77.5956 32° Northeast 439 505 39,000  Level Washington Center
Tue 07:40:27 PM 35.5292 -77.5164 32° Northeast 434 499 39,000  Level Washington Center
Tue 07:41:25 PM 35.6308 -77.4344 33° Northeast 434 499 39,000  Level Washington Center
Tue 07:42:25 PM 35.7342 -77.3550 32° Northeast 434 499 39,000  Level Washington Center
Tue 07:43:26 PM 35.8397 -77.2728 32° Northeast 434 499 39,000  Level Washington Center
Tue 07:44:27 PM 35.9389 -77.1953 32° Northeast 434 499 39,000  Level Washington Center
Tue 07:45:25 PM 36.0464 -77.1103 33° Northeast 425 489 39,000  Level Washington Center
Tue 07:46:26 PM 36.1247 -77.0011 48° Northeast 412 474 39,000  Level Washington Center
Tue 07:47:26 PM 36.1828 -76.8633 62° Northeast 432 497 39,000  Level Washington Center
Tue 07:48:27 PM 36.2322 -76.7172 67° East 432 497 39,000  Level Washington Center
Tue 07:49:27 PM 36.2750 -76.5814 69° East 451 519 39,000  Level Washington Center
Tue 07:50:25 PM 36.3178 -76.4375 70° East 451 519 39,000  Level Washington Center
Tue 07:51:25 PM 36.4103 -76.3431 39° Northeast 433 498 39,000  Level Washington Center
Tue 07:52:26 PM 36.5192 -76.2872 22° Northeast 398 458 39,000  Level Washington Center
Tue 07:53:27 PM 36.6300 -76.2314 22° Northeast 403 464 39,000  Level Washington Center
Tue 07:54:25 PM 36.7367 -76.1700 25° Northeast 419 482 39,000  Level Washington Center
Tue 07:55:25 PM 36.8517 -76.1111 22° Northeast 424 488 39,000  Level Washington Center
Tue 07:56:26 PM 36.9792 -76.0494 21° North 440 506 39,000  Level Washington Center
Tue 07:57:26 PM 37.0900 -75.9878 24° Northeast 445 512 39,000  Level Washington Center
Tue 07:58:27 PM 37.2028 -75.9283 23° Northeast 440 506 39,000  Level Washington Center
Tue 07:59:27 PM 37.3114 -75.8686 24° Northeast 430 495 39,000  Level Washington Center
Tue 08:00:25 PM 37.4242 -75.8089 23° Northeast 430 495 39,000  Level Washington Center
Tue 08:01:26 PM 37.5369 -75.7464 24° Northeast 435 501 39,000  Level Washington Center
Tue 08:02:27 PM 37.6517 -75.6889 22° Northeast 435 501 39,000  Level Washington Center
Tue 08:03:25 PM 37.7644 -75.6286 23° Northeast 435 501 39,000  Level Washington Center
Tue 08:04:25 PM 37.8750 -75.5681 23° Northeast 435 501 39,000  Level Washington Center
Tue 08:05:26 PM 37.9875 -75.5100 22° Northeast 440 506 39,000 -246 Level Washington Center
Tue 08:06:27 PM 38.0981 -75.4439 25° Northeast 440 506 38,500 -655 Descending Washington Center
Tue 08:07:25 PM 38.2064 -75.3750 27° Northeast 440 506 37,700 -712 Descending Washington Center
Tue 08:08:25 PM 38.2917 -75.3219 26° Northeast 434 499 37,100 -744 Descending Washington Center
Tue 08:09:26 PM 38.4186 -75.2339 29° Northeast 427 491 36,200 -843 Descending Washington Center
Tue 08:10:26 PM 38.5269 -75.1669 26° Northeast 422 486 35,400 -600 Descending Washington Center
Tue 08:11:26 PM 38.6369 -75.0972 26° Northeast 427 491 35,000 -198 Descending Washington Center
Tue 08:12:27 PM 38.7431 -75.0247 28° Northeast 427 491 35,000  Level Washington Center
Tue 08:13:27 PM 38.8511 -74.9600 25° Northeast 427 491 35,000 -915 Level Washington Center
Tue 08:14:25 PM 38.9569 -74.8897 27° Northeast 427 491 33,200 -2,085 Descending Washington Center
Tue 08:15:25 PM 39.0628 -74.8217 27° Northeast 427 491 30,900 -2,281 Descending Washington Center
Tue 08:16:26 PM 39.1644 -74.7297 35° Northeast 432 497 28,600 -2,281 Descending Washington Center
Tue 08:17:26 PM 39.2553 -74.6294 41° Northeast 432 497 26,300 -2,194 Descending Washington Center
Tue 08:18:40 PM 39.3556 -74.5217 40° Northeast 433 498 23,700 -2,089 Descending New Center
Tue 08:19:41 PM 39.4400 -74.4267 41° Northeast 411 473 21,600 -2,033 Descending New Center
Tue 08:20:41 PM 39.5239 -74.3394 39° Northeast 397 457 19,600 -1,835 Descending New Center
Tue 08:21:42 PM 39.6103 -74.2417 41° Northeast 377 434 17,900 -1,686 Descending New Center
Tue 08:22:42 PM 39.6814 -74.1642 40° Northeast 366 421 16,200 -1,436 Descending New Center
Tue 08:23:39 PM 39.7564 -74.0842 39° Northeast 366 421 15,100 -1,271 Descending New Center
Tue 08:24:40 PM 39.8381 -73.9961 40° Northeast 352 405 13,700 -1,289 Descending New Center
Tue 08:25:40 PM 39.9214 -73.9294 32° Northeast 346 398 12,500 -1,140 Descending New Center
Tue 08:26:41 PM 39.9872 -73.8783 31° Northeast 320 368 11,400 -738 Descending New Center
Tue 08:27:42 PM 40.0514 -73.8189 35° Northeast 299 344 11,000 -900 Descending New Center
Tue 08:28:41 PM 40.1278 -73.7706 26° Northeast 282 325 9,600 -1,600 Descending New Center
Tue 08:29:42 PM 40.1947 -73.8333 324° Northwest 256 295 7,800 -1,729 Descending New Center
Tue 08:30:39 PM 40.2578 -73.8933 324° Northwest 282 325 6,200 -1,400 Descending New Center
Tue 08:31:42 PM 40.3128 -73.9447 325° Northwest 282 325 5,000 -780 Descending New Center
Tue 08:32:42 PM 40.3778 -74.0050 325° Northwest 268 308 4,600 -635 Descending New Center
Tue 08:33:26 PM 40.4167 -74.0167 347° North 224 258 3,900 -865 Descending New TRACON
Tue 08:34:26 PM 40.4833 -74.0000 11° North 183 211 3,100 -300 Descending New TRACON
Tue 08:36:26 PM 40.5667 -73.9333 31° Northeast 179 206 3,000 -200 Descending New TRACON
Tue 08:37:26 PM 40.6000 -73.9000 37° Northeast 165 190 2,500 -633 Descending New TRACON
Tue 08:39:26 PM 40.6667 -73.8500 30° Northeast 124 143 1,100 -700 Descending New TRACON
Tue 08:40:26 PM 40.6667 -73.8000 90° East 117 135 400 -700 Descending New TRACON
Tue 08:42:00 PM 40.6398 -73.7789 66° East  Level Estimated
Tue 08:49:00 PM 40.6398 -73.7789 66° East  Level Estimated

Login

Don't have an account? Register now (free) for customized features, flight alerts, and more!